createdAt,value
2018-06-03T07:27:07.853Z,98295.05
2018-06-03T07:28:11.400Z,98289.91
2018-06-03T07:29:14.925Z,98295.52
2018-06-03T07:30:18.458Z,98301.14
2018-06-03T07:31:21.971Z,98292.72
2018-06-03T07:32:25.885Z,98292.62
2018-06-03T07:33:29.443Z,98293.64
2018-06-03T07:34:32.960Z,98287.42
2018-06-03T07:35:36.493Z,98285.64
2018-06-03T07:36:40.042Z,98286.87
2018-06-03T07:37:43.577Z,98291.47
2018-06-03T07:38:47.603Z,98287.66
2018-06-03T07:39:51.160Z,98286.97
2018-06-03T07:40:54.793Z,98286.92
2018-06-03T07:41:58.364Z,98286.50
2018-06-03T07:43:01.943Z,98285.44
2018-06-03T07:44:05.528Z,98284.05
2018-06-03T07:45:09.589Z,98268.17
2018-06-03T07:46:13.129Z,98295.30
2018-06-03T07:47:16.629Z,98291.23
2018-06-03T07:48:20.162Z,98289.48
2018-06-03T07:49:23.677Z,98298.81
2018-06-03T07:50:27.250Z,98289.97
2018-06-03T07:51:31.153Z,98294.27
2018-06-03T07:52:34.733Z,98273.16
2018-06-03T07:53:39.245Z,98291.15
2018-06-03T07:54:42.815Z,98293.18
2018-06-03T07:55:46.355Z,98294.27
2018-06-03T07:56:49.921Z,98271.02
2018-06-03T07:57:53.882Z,98289.44
2018-06-03T07:58:57.405Z,98284.26
2018-06-03T08:00:00.975Z,98291.37
2018-06-03T08:01:04.510Z,98290.48
2018-06-03T08:02:08.079Z,98292.89
2018-06-03T08:03:11.646Z,98283.75
2018-06-03T08:04:15.627Z,98285.42
2018-06-03T08:05:19.161Z,98292.61
2018-06-03T08:06:22.683Z,98295.65
2018-06-03T08:07:26.339Z,98288.53
2018-06-03T08:08:29.882Z,98292.63
2018-06-03T08:09:34.185Z,98294.68
2018-06-03T08:10:38.194Z,98289.80
2018-06-03T08:11:41.733Z,98284.04
2018-06-03T08:12:45.258Z,98286.03
2018-06-03T08:13:48.860Z,98285.05
2018-06-03T08:14:52.502Z,98280.19
2018-06-03T08:15:56.158Z,98281.20
2018-06-03T08:17:00.154Z,98278.67
2018-06-03T08:18:03.665Z,98288.08
2018-06-03T08:19:07.189Z,98283.09
2018-06-03T08:20:10.757Z,98273.39
2018-06-03T10:19:27.360Z,98220.49
2018-06-03T10:20:30.973Z,98217.47
2018-06-03T10:21:34.593Z,98217.87
2018-06-03T10:22:38.188Z,98214.28
2018-06-03T10:23:41.738Z,98218.80
2018-06-03T10:24:45.663Z,98222.05
2018-06-03T10:25:49.250Z,98215.48
2018-06-03T10:26:52.813Z,98202.37
2018-06-03T10:27:56.429Z,98213.06
2018-06-03T10:29:00.044Z,98219.27
2018-06-03T10:30:03.598Z,98215.55
2018-06-03T10:31:07.657Z,98215.66
2018-06-03T10:32:11.266Z,98211.77
2018-06-03T10:33:14.804Z,98214.44
2018-06-03T10:34:18.368Z,98214.83
2018-06-03T10:35:21.959Z,98185.24
2018-06-03T10:36:25.553Z,98211.22
2018-06-03T10:37:29.611Z,98207.97
2018-06-03T10:38:33.162Z,98212.27
2018-06-03T10:39:36.728Z,98211.87
2018-06-03T10:40:40.316Z,98211.61
2018-06-03T10:41:43.844Z,98213.55
2018-06-03T10:42:47.361Z,98214.89
2018-06-03T10:43:51.405Z,98212.97
2018-06-03T10:44:54.970Z,98192.41
2018-06-03T10:45:58.536Z,98210.09
2018-06-03T10:47:02.111Z,98209.12
2018-06-03T10:48:05.632Z,98212.22
2018-06-03T10:49:09.184Z,98203.34
2018-06-03T10:50:12.708Z,98205.94
2018-06-03T10:51:16.225Z,98206.30
2018-06-03T10:52:19.878Z,98207.34
2018-06-03T10:53:23.428Z,98212.61
2018-06-03T10:54:26.947Z,98214.41
2018-06-03T10:55:31.139Z,98208.68
2018-06-03T10:56:34.679Z,98203.27
2018-06-03T10:57:38.218Z,98204.41
2018-06-03T10:58:41.750Z,98202.69
2018-06-03T10:59:45.290Z,98201.34
2018-06-03T11:00:48.840Z,98208.03
2018-06-03T11:01:52.429Z,98196.08
2018-06-03T11:02:55.987Z,98199.72
2018-06-03T11:03:59.502Z,98197.09
2018-06-03T11:05:03.078Z,98197.67
2018-06-03T11:06:06.624Z,98192.45
2018-06-03T11:07:10.563Z,98191.86
2018-06-03T11:08:14.120Z,98194.06
2018-06-03T11:09:17.698Z,98192.80
2018-06-03T11:10:21.278Z,98197.28
2018-06-03T11:11:24.952Z,98195.00
2018-06-03T11:12:28.532Z,98192.80
2018-06-03T11:13:32.493Z,98193.46
2018-06-03T11:14:36.027Z,98190.78
2018-06-03T11:15:39.545Z,98192.13
2018-06-03T11:16:43.127Z,98190.22
2018-06-03T11:17:47.544Z,98188.88
2018-06-03T11:18:51.083Z,98186.89
2018-06-03T11:19:55.094Z,98184.90
2018-06-03T11:20:58.719Z,98182.05
2018-06-03T11:22:02.309Z,98186.84
2018-06-03T11:23:05.876Z,98182.36
2018-06-03T11:24:09.523Z,98181.70
2018-06-03T11:25:13.116Z,98183.38
2018-06-03T11:26:17.019Z,98187.39
2018-06-03T11:27:20.608Z,98188.94
2018-06-03T11:28:24.176Z,98188.38
2018-06-03T11:29:27.767Z,98183.59
2018-06-03T11:30:32.194Z,98186.26
2018-06-03T11:31:35.935Z,98188.75
2018-06-03T11:32:40.036Z,98186.83
2018-06-03T11:33:43.570Z,98188.09
2018-06-03T11:34:47.229Z,98188.16
2018-06-03T11:35:50.763Z,98192.49
2018-06-03T11:36:54.284Z,98185.89
2018-06-03T11:37:57.853Z,98186.75
2018-06-03T11:39:01.818Z,98189.23
2018-06-03T11:40:05.395Z,98185.02
2018-06-03T11:41:08.948Z,98186.26
2018-06-03T11:42:12.556Z,98182.59
2018-06-03T11:43:16.293Z,98185.50
2018-06-03T11:44:19.880Z,98176.44
2018-06-03T11:45:24.598Z,98182.75
2018-06-03T11:46:28.263Z,98183.03
2018-06-03T11:47:31.842Z,98185.98
2018-06-03T11:48:35.389Z,98179.70
2018-06-03T11:49:39.142Z,98184.58
2018-06-03T11:50:42.660Z,98180.06
2018-06-03T11:51:46.675Z,98184.18
2018-06-03T11:52:50.213Z,98179.42
2018-06-03T11:53:53.846Z,98177.11
2018-06-03T11:54:57.436Z,98176.56
2018-06-03T11:56:00.991Z,98177.31
2018-06-03T11:57:04.566Z,98181.32
2018-06-03T11:58:08.619Z,98176.92
2018-06-03T11:59:12.592Z,98175.98
2018-06-03T12:00:16.562Z,98176.16
2018-06-03T12:01:20.380Z,98173.88
2018-06-03T12:02:24.236Z,98175.32
2018-06-03T12:03:27.970Z,98178.27
2018-06-03T12:04:32.164Z,98169.47
2018-06-03T12:05:35.702Z,98174.27
2018-06-03T12:06:39.290Z,98172.34
2018-06-03T12:07:43.028Z,98167.87
2018-06-03T12:08:46.637Z,98165.09
2018-06-03T12:09:50.192Z,98135.88
2018-06-03T12:10:54.228Z,98165.55
2018-06-03T12:11:57.858Z,98170.43
2018-06-03T12:13:01.426Z,98161.66
2018-06-03T12:14:05.007Z,98164.05
2018-06-03T12:15:08.598Z,98160.12
2018-06-03T12:16:12.207Z,98168.13
2018-06-03T12:17:15.770Z,98165.38
2018-06-03T12:18:19.395Z,98169.47
2018-06-03T12:19:22.994Z,98164.33
2018-06-03T12:20:26.632Z,98164.73
2018-06-03T12:21:30.216Z,98154.97
2018-06-03T12:22:34.181Z,98160.62
2018-06-03T12:23:37.769Z,98162.88
2018-06-03T12:24:41.349Z,98156.90
2018-06-03T12:25:44.943Z,98156.39
2018-06-03T12:26:48.536Z,98154.98
2018-06-03T12:27:52.085Z,98153.64
2018-06-03T12:28:56.159Z,98140.85
2018-06-03T12:29:59.766Z,98134.36
2018-06-03T12:31:03.351Z,98154.87
2018-06-03T12:32:06.939Z,98155.06
2018-06-03T12:33:10.491Z,98150.58
2018-06-03T12:34:14.058Z,98151.84
2018-06-03T12:35:23.338Z,98139.80
2018-06-03T12:36:26.993Z,98151.14
2018-06-03T12:37:30.612Z,98149.52
2018-06-03T12:38:34.174Z,98150.95
2018-06-03T12:39:37.726Z,98150.67
2018-06-03T12:40:41.269Z,98140.84
2018-06-03T12:41:45.206Z,98143.91
2018-06-03T12:42:48.784Z,98125.89
2018-06-03T12:43:52.577Z,98138.09
2018-06-03T12:44:56.188Z,98142.18
2018-06-03T12:45:59.773Z,98140.38
2018-06-03T12:47:03.702Z,98133.41
2018-06-03T12:48:08.107Z,98139.98
2018-06-03T12:49:11.673Z,98136.84
2018-06-03T12:50:15.415Z,98131.02
2018-06-03T12:51:19.136Z,98132.55
2018-06-03T12:52:22.960Z,98135.50
2018-06-03T12:53:26.597Z,98133.22
2018-06-03T12:54:30.526Z,98130.62
2018-06-03T12:55:34.097Z,98127.88
2018-06-03T12:56:38.221Z,98112.59
2018-06-03T12:57:41.789Z,98125.67
2018-06-03T12:58:45.366Z,98126.06
2018-06-03T12:59:48.946Z,98124.81
2018-06-03T13:00:52.915Z,98126.54
2018-06-03T13:01:56.511Z,98130.36
2018-06-03T13:03:00.178Z,98114.67
2018-06-03T13:04:03.912Z,98119.08
2018-06-03T13:05:07.597Z,98122.14
2018-06-03T13:06:11.166Z,98124.42
2018-06-03T13:07:15.233Z,98120.89
2018-06-03T13:08:18.814Z,98126.63
2018-06-03T13:09:22.376Z,98123.65
2018-06-03T13:10:27.006Z,98123.65
2018-06-03T13:11:30.596Z,98122.98
2018-06-03T13:12:34.763Z,98127.48
2018-06-03T13:13:39.008Z,98121.55
2018-06-03T13:14:42.551Z,98125.95
2018-06-03T13:15:46.126Z,98120.02
2018-06-03T13:16:49.675Z,98125.77
2018-06-03T13:17:53.519Z,98127.09
2018-06-03T13:18:57.084Z,98122.70
2018-06-03T13:20:00.968Z,98127.48
2018-06-03T13:21:04.514Z,98128.83
2018-06-03T13:22:08.028Z,98121.28
2018-06-03T13:23:11.540Z,98123.09
2018-06-03T13:24:15.078Z,98120.62
2018-06-03T13:25:18.645Z,98120.22
2018-06-03T13:26:22.735Z,98130.99
2018-06-03T13:27:26.322Z,98124.81
2018-06-03T13:28:30.139Z,98120.41
2018-06-03T13:29:33.736Z,98122.98
2018-06-03T13:30:37.323Z,98117.63
2018-06-03T13:31:40.969Z,98123.09
2018-06-03T13:32:44.928Z,98116.41
2018-06-03T13:33:48.490Z,98100.67
2018-06-03T13:34:52.059Z,98114.79
2018-06-03T13:35:55.570Z,98115.73
2018-06-03T13:36:59.211Z,98113.93
2018-06-03T13:38:02.821Z,98108.11
2018-06-03T13:39:06.895Z,98116.60
2018-06-03T13:40:10.491Z,98111.06
2018-06-03T13:41:14.009Z,98115.27
2018-06-03T13:42:17.555Z,98110.50
2018-06-03T13:43:21.109Z,98093.31
2018-06-03T13:44:24.711Z,98109.52
2018-06-03T13:45:28.656Z,98107.72
2018-06-03T13:46:32.317Z,98107.72
2018-06-03T13:47:35.877Z,98105.52
2018-06-03T13:48:39.423Z,98107.25
2018-06-03T13:49:43.231Z,98103.34
2018-06-03T13:50:46.870Z,98103.34
2018-06-03T13:51:50.951Z,98098.84
2018-06-03T13:52:54.495Z,98100.84
2018-06-03T13:53:58.050Z,98096.95
2018-06-03T13:55:01.587Z,98095.50
2018-06-03T13:56:05.136Z,98090.63
2018-06-03T13:57:08.725Z,98088.06
2018-06-03T13:58:12.714Z,98089.68
2018-06-03T13:59:16.248Z,98056.61
2018-06-03T14:00:19.783Z,98082.05
2018-06-03T14:01:23.293Z,98085.11
2018-06-03T14:02:26.831Z,98080.24
2018-06-03T14:03:30.362Z,98077.45
2018-06-03T14:04:34.327Z,98082.45
2018-06-03T14:05:37.844Z,98080.80
2018-06-03T14:06:41.408Z,98076.98
2018-06-03T14:07:44.942Z,98074.42
2018-06-03T14:08:48.766Z,98047.26
2018-06-03T14:09:52.385Z,98070.22
2018-06-03T14:10:56.367Z,98072.70
2018-06-03T14:11:59.911Z,98069.83
2018-06-03T14:13:03.522Z,98067.91
2018-06-03T14:14:07.135Z,98058.75
2018-06-03T14:15:10.675Z,98058.95
2018-06-03T14:16:14.675Z,98064.87
2018-06-03T14:17:18.283Z,98042.83
2018-06-03T14:18:21.837Z,98059.89
2018-06-03T14:19:25.388Z,98065.63
2018-06-03T14:20:29.019Z,98062.01
2018-06-03T14:21:32.598Z,98060.67
2018-06-03T14:22:36.607Z,98058.63
2018-06-03T14:23:40.161Z,98061.70
2018-06-03T14:24:43.734Z,98054.62
2018-06-03T14:25:47.315Z,98058.91
2018-06-03T14:26:50.867Z,98055.48
2018-06-03T14:27:54.424Z,98058.63
2018-06-03T14:28:58.423Z,98055.48
2018-06-03T14:30:01.996Z,98050.62
2018-06-03T14:31:05.540Z,98058.16
2018-06-03T14:32:09.075Z,98055.48
2018-06-03T14:33:12.627Z,98030.69
2018-06-03T14:34:16.178Z,98045.86
2018-06-03T14:35:20.156Z,98048.89
2018-06-03T14:36:24.818Z,98015.44
2018-06-03T14:37:28.518Z,98048.41
2018-06-03T14:38:32.038Z,98040.98
2018-06-03T14:39:35.596Z,98049.36
2018-06-03T14:40:39.133Z,98045.35
2018-06-03T14:41:43.133Z,98039.25
2018-06-03T14:42:46.667Z,98037.53
2018-06-03T14:43:50.249Z,98043.86
2018-06-03T14:44:53.831Z,98041.18
2018-06-03T14:45:57.413Z,98040.98
2018-06-03T14:47:00.967Z,98036.19
2018-06-03T14:48:04.859Z,98042.31
2018-06-03T14:49:08.466Z,98031.23
2018-06-03T14:50:12.015Z,98037.05
2018-06-03T14:51:15.575Z,98028.68
2018-06-03T14:52:19.148Z,98027.81
2018-06-03T14:53:22.695Z,98028.17
2018-06-03T14:54:26.600Z,98027.62
2018-06-03T14:55:30.195Z,98027.97
2018-06-03T14:56:34.051Z,98022.07
2018-06-03T14:57:37.614Z,98022.62
2018-06-03T14:58:41.078Z,98015.39
2018-06-03T14:59:44.610Z,98014.73
2018-06-03T15:00:48.519Z,98016.53
2018-06-03T15:01:52.046Z,97996.14
2018-06-03T15:02:55.589Z,98008.91
2018-06-03T15:03:59.791Z,98004.90
2018-06-03T15:05:03.477Z,97992.13
2018-06-03T15:06:07.006Z,98003.56
2018-06-03T15:07:11.089Z,98004.31
2018-06-03T15:08:15.225Z,97990.20
2018-06-03T15:09:18.813Z,98006.03
2018-06-03T15:10:22.351Z,97997.16
2018-06-03T15:11:25.960Z,97998.29
2018-06-03T15:12:29.548Z,97995.81
2018-06-03T15:13:33.651Z,97980.66
2018-06-03T15:14:37.234Z,97993.41
2018-06-03T15:15:40.765Z,97989.61
2018-06-03T15:16:44.375Z,97989.13
2018-06-03T15:17:48.135Z,97983.67
2018-06-03T15:18:51.701Z,97985.39
2018-06-03T15:19:55.577Z,97981.39
2018-06-03T15:20:59.186Z,97988.07
2018-06-03T15:22:02.761Z,97987.20
2018-06-03T15:23:06.300Z,97981.78
2018-06-03T15:24:09.865Z,97983.11
2018-06-03T15:25:13.437Z,97982.72
2018-06-03T15:26:17.063Z,97985.78
2018-06-03T15:27:20.661Z,97977.53
2018-06-03T15:28:24.212Z,97977.33
2018-06-03T15:29:27.859Z,97978.52
2018-06-03T15:30:31.422Z,97974.11
2018-06-03T15:31:35.510Z,97971.44
2018-06-03T15:32:39.076Z,97976.52
2018-06-03T15:33:42.651Z,97972.89
2018-06-03T15:34:46.220Z,97972.69
2018-06-03T15:35:50.851Z,97976.06
2018-06-03T15:36:54.446Z,97969.65
2018-06-03T15:37:58.397Z,97965.02
2018-06-03T15:39:01.964Z,97965.96
2018-06-03T15:40:05.517Z,97966.34
2018-06-03T15:41:09.052Z,97962.97
2018-06-03T15:42:12.604Z,97968.31
2018-06-03T15:43:16.125Z,97963.95
2018-06-03T15:44:20.160Z,97960.29
2018-06-03T15:45:23.683Z,97961.19
2018-06-03T15:46:27.237Z,97955.45
2018-06-03T15:47:30.962Z,97959.55
2018-06-03T15:48:34.554Z,97958.95
2018-06-03T15:49:38.121Z,97965.20
2018-06-03T15:50:42.155Z,97962.52
2018-06-03T15:51:45.695Z,97958.42
2018-06-03T15:52:49.321Z,97959.46
2018-06-03T15:53:52.873Z,97965.59
2018-06-03T15:54:56.397Z,97956.70
2018-06-03T15:56:01.128Z,97960.12
2018-06-03T15:57:05.093Z,97961.45
2018-06-03T15:58:08.657Z,97965.47
2018-06-03T15:59:12.200Z,97965.47
2018-06-03T16:00:15.814Z,97960.12
2018-06-03T16:01:19.430Z,97958.97
2018-06-03T16:02:22.980Z,97959.35
2018-06-03T16:03:26.844Z,97958.84
2018-06-03T16:04:30.438Z,97955.22
2018-06-03T16:05:34.060Z,97955.22
2018-06-03T16:06:37.624Z,97960.09
2018-06-03T16:07:41.221Z,97955.97
2018-06-03T16:08:44.747Z,97957.22
2018-06-03T16:09:48.610Z,97956.03
2018-06-03T16:10:52.343Z,97964.91
2018-06-03T16:11:55.914Z,97964.17
2018-06-03T16:12:59.498Z,97957.09
2018-06-03T16:14:03.061Z,97955.67
2018-06-03T16:15:06.609Z,97951.27
2018-06-03T16:16:10.584Z,97955.28
2018-06-03T16:17:14.222Z,97954.90
2018-06-03T16:18:17.789Z,97955.28
2018-06-03T16:19:21.324Z,97953.09
2018-06-03T16:20:24.892Z,97953.30
2018-06-03T16:21:28.537Z,97952.22
2018-06-03T16:22:32.537Z,97956.63
2018-06-03T16:23:36.088Z,97950.33
2018-06-03T16:24:39.865Z,97949.46
2018-06-03T16:25:43.426Z,97952.14
2018-06-03T16:26:47.008Z,97937.91
2018-06-03T16:27:50.628Z,97937.91
2018-06-03T16:28:54.696Z,97915.17
2018-06-03T16:29:58.296Z,97934.75
2018-06-03T16:31:01.917Z,97937.70
2018-06-03T16:32:05.552Z,97931.48
2018-06-03T16:33:09.144Z,97931.95
2018-06-03T16:34:12.718Z,97936.09
2018-06-03T16:35:16.636Z,97927.20
2018-06-03T16:36:20.248Z,97938.77
2018-06-03T16:37:23.795Z,97942.30
2018-06-03T16:38:27.452Z,97939.51
2018-06-03T16:39:31.066Z,97935.97
2018-06-03T16:40:34.646Z,97933.30
2018-06-03T16:41:38.574Z,97932.94
2018-06-03T16:42:42.165Z,97928.93
2018-06-03T16:43:45.875Z,97932.47
2018-06-03T16:44:49.413Z,97926.25
2018-06-03T16:45:52.980Z,97928.16
2018-06-03T16:46:56.548Z,97934.48
2018-06-03T16:48:00.571Z,97927.33
2018-06-03T16:49:04.165Z,97929.88
2018-06-03T16:50:07.747Z,97935.23
2018-06-03T16:51:11.359Z,97934.01
2018-06-03T16:52:15.016Z,97936.69
2018-06-03T16:53:18.610Z,97929.13
2018-06-03T16:54:22.695Z,97930.00
2018-06-03T16:55:26.754Z,97928.66
2018-06-03T16:56:30.472Z,97928.16
2018-06-03T22:27:13.900Z,97943.05
2018-06-03T22:28:17.640Z,97944.00
2018-06-03T22:29:21.242Z,97945.11
2018-06-03T22:30:24.804Z,97943.55
2018-06-03T22:31:28.429Z,97945.30
2018-06-03T22:32:32.428Z,97943.93
2018-06-03T22:33:36.060Z,97870.07
2018-06-03T22:34:39.599Z,97938.55
2018-06-03T22:35:43.210Z,97940.19
2018-06-03T22:36:46.824Z,97932.45
2018-06-03T22:37:50.396Z,97935.75
2018-06-03T22:38:54.238Z,97932.99
2018-06-03T22:39:57.782Z,97935.82
2018-06-03T22:41:01.353Z,97930.86
2018-06-03T22:42:04.892Z,97932.59
2018-06-03T22:43:08.428Z,97930.98
2018-06-03T22:44:12.009Z,97930.59
2018-06-03T22:45:15.675Z,97930.20
2018-06-03T22:46:19.209Z,97931.06
2018-06-03T22:47:22.737Z,97928.00
2018-06-03T22:48:26.295Z,97921.44
2018-06-03T22:49:29.835Z,97919.24
2018-06-03T22:50:33.695Z,97923.25
2018-06-03T22:51:37.231Z,97921.44
2018-06-03T22:52:40.774Z,97923.64
2018-06-03T22:53:44.322Z,97923.64
2018-06-03T22:54:47.912Z,97922.66
2018-06-03T22:55:51.457Z,97925.33
2018-06-03T22:56:55.289Z,97917.82
2018-06-03T22:57:59.122Z,97918.30
2018-06-03T22:59:02.690Z,97912.95
2018-06-03T23:00:06.236Z,97912.48
2018-06-03T23:01:09.818Z,97920.58
2018-06-03T23:02:13.374Z,97922.30
2018-06-03T23:03:17.626Z,97923.25
2018-06-03T23:04:21.202Z,97920.11
2018-06-03T23:05:24.778Z,97922.30
2018-06-03T23:06:28.340Z,97921.44
2018-06-03T23:07:31.854Z,97923.64
2018-06-03T23:08:35.436Z,97918.30
2018-06-03T23:09:39.259Z,97919.24
2018-06-03T23:10:42.815Z,97917.91
2018-06-03T23:11:46.389Z,97913.90
2018-06-03T23:12:49.928Z,97910.36
2018-06-03T23:13:53.477Z,97916.57
2018-06-03T23:14:57.075Z,97912.56
2018-06-03T23:16:00.937Z,97909.89
2018-06-03T23:17:04.686Z,97907.22
2018-06-03T23:18:08.216Z,97912.95
2018-06-03T23:19:11.744Z,97918.77
2018-06-03T23:20:15.317Z,97913.03
2018-06-03T23:21:18.888Z,97906.86
2018-06-03T23:22:22.846Z,97907.81
2018-06-03T23:23:26.377Z,97901.98
2018-06-03T23:24:29.911Z,97909.53
2018-06-03T23:25:33.486Z,97866.20
2018-06-03T23:26:37.057Z,97902.85
2018-06-03T23:27:40.676Z,97904.66
2018-06-03T23:28:44.489Z,97901.12
2018-06-03T23:29:48.079Z,97899.80
2018-06-03T23:30:51.715Z,97900.66
2018-06-03T23:31:55.464Z,97905.02
2018-06-03T23:32:59.008Z,97905.02
2018-06-03T23:34:02.545Z,97906.36
2018-06-03T23:35:06.368Z,97901.98
2018-06-03T23:36:09.908Z,97901.02
2018-06-03T23:37:13.515Z,97900.66
2018-06-03T23:38:17.085Z,97902.34
2018-06-03T23:39:20.652Z,97901.98
2018-06-03T23:40:24.190Z,97898.45
2018-06-03T23:41:30.703Z,97902.85
2018-06-03T23:42:34.293Z,97902.47
2018-06-03T23:43:37.883Z,97896.73
2018-06-03T23:44:41.415Z,97901.52
2018-06-03T23:45:44.919Z,97849.87
2018-06-03T23:46:48.469Z,97896.26
2018-06-03T23:47:52.310Z,97894.53
2018-06-03T23:48:55.846Z,97899.41
2018-06-03T23:49:59.344Z,97898.55
2018-06-03T23:51:02.870Z,97893.59
2018-06-03T23:52:06.397Z,97890.52
2018-06-03T23:53:09.940Z,97890.17
2018-06-03T23:54:13.794Z,97887.02
2018-06-03T23:55:17.317Z,97891.86
2018-06-03T23:56:20.855Z,97893.70
2018-06-03T23:57:24.397Z,97893.70
2018-06-03T23:58:27.940Z,97897.71
2018-06-03T23:59:31.518Z,97896.38
